sensor_id;sensor_type;location;lat;lon;timestamp;temperature;humidity
10155;DHT22;5118;48.570;7.916;2023-02-28T00:01:55;-1.40;71.80
10155;DHT22;5118;48.570;7.916;2023-02-28T00:04:23;-1.40;72.00
10155;DHT22;5118;48.570;7.916;2023-02-28T00:06:52;-1.50;72.70
10155;DHT22;5118;48.570;7.916;2023-02-28T00:09:20;-1.50;72.50
10155;DHT22;5118;48.570;7.916;2023-02-28T00:11:49;-1.60;73.50
10155;DHT22;5118;48.570;7.916;2023-02-28T00:14:17;-1.60;73.80
10155;DHT22;5118;48.570;7.916;2023-02-28T00:16:47;-1.60;74.00
10155;DHT22;5118;48.570;7.916;2023-02-28T00:19:15;-1.60;75.50
10155;DHT22;5118;48.570;7.916;2023-02-28T00:21:44;-1.60;76.30
10155;DHT22;5118;48.570;7.916;2023-02-28T00:24:12;-1.50;76.00
10155;DHT22;5118;48.570;7.916;2023-02-28T00:26:41;-1.50;75.60
10155;DHT22;5118;48.570;7.916;2023-02-28T00:29:10;-1.50;77.10
10155;DHT22;5118;48.570;7.916;2023-02-28T00:31:38;-1.60;77.80
10155;DHT22;5118;48.570;7.916;2023-02-28T00:34:08;-1.60;77.30
10155;DHT22;5118;48.570;7.916;2023-02-28T00:36:36;-1.60;78.30
10155;DHT22;5118;48.570;7.916;2023-02-28T00:39:05;-1.60;78.80
10155;DHT22;5118;48.570;7.916;2023-02-28T00:41:34;-1.60;79.70
10155;DHT22;5118;48.570;7.916;2023-02-28T00:44:02;-1.70;80.50
10155;DHT22;5118;48.570;7.916;2023-02-28T00:46:31;-1.70;81.90
10155;DHT22;5118;48.570;7.916;2023-02-28T00:49:00;-1.70;81.70
10155;DHT22;5118;48.570;7.916;2023-02-28T00:51:30;-1.70;83.20
10155;DHT22;5118;48.570;7.916;2023-02-28T00:53:59;-1.70;83.70
10155;DHT22;5118;48.570;7.916;2023-02-28T00:56:27;-1.70;83.70
10155;DHT22;5118;48.570;7.916;2023-02-28T00:58:56;-1.70;84.10
10155;DHT22;5118;48.570;7.916;2023-02-28T01:01:24;-1.60;84.50
10155;DHT22;5118;48.570;7.916;2023-02-28T01:03:53;-1.60;85.60
10155;DHT22;5118;48.570;7.916;2023-02-28T01:06:22;-1.60;86.50
10155;DHT22;5118;48.570;7.916;2023-02-28T01:08:52;-1.60;87.40
10155;DHT22;5118;48.570;7.916;2023-02-28T01:11:22;-1.60;86.70
10155;DHT22;5118;48.570;7.916;2023-02-28T01:13:52;-1.60;88.30
10155;DHT22;5118;48.570;7.916;2023-02-28T01:16:21;-1.50;89.30
10155;DHT22;5118;48.570;7.916;2023-02-28T01:18:51;-1.50;89.10
10155;DHT22;5118;48.570;7.916;2023-02-28T01:21:21;-1.30;90.20
10155;DHT22;5118;48.570;7.916;2023-02-28T01:23:55;-1.30;90.20
10155;DHT22;5118;48.570;7.916;2023-02-28T01:26:25;-1.20;90.60
10155;DHT22;5118;48.570;7.916;2023-02-28T01:28:56;-1.10;90.70
10155;DHT22;5118;48.570;7.916;2023-02-28T01:31:25;-0.90;90.70
10155;DHT22;5118;48.570;7.916;2023-02-28T01:33:55;-0.90;90.40
10155;DHT22;5118;48.570;7.916;2023-02-28T01:36:27;-0.80;90.50
10155;DHT22;5118;48.570;7.916;2023-02-28T01:38:58;-0.70;90.70
10155;DHT22;5118;48.570;7.916;2023-02-28T01:41:30;-0.60;90.80
10155;DHT22;5118;48.570;7.916;2023-02-28T01:44:03;-0.50;90.80
10155;DHT22;5118;48.570;7.916;2023-02-28T01:46:34;-0.40;91.20
10155;DHT22;5118;48.570;7.916;2023-02-28T01:49:10;-0.40;91.40
10155;DHT22;5118;48.570;7.916;2023-02-28T01:51:41;-0.30;92.00
10155;DHT22;5118;48.570;7.916;2023-02-28T01:54:16;-0.30;91.60
10155;DHT22;5118;48.570;7.916;2023-02-28T01:56:49;-0.20;91.70
10155;DHT22;5118;48.570;7.916;2023-02-28T01:59:24;-0.20;91.80
10155;DHT22;5118;48.570;7.916;2023-02-28T02:01:55;-0.20;92.00
10155;DHT22;5118;48.570;7.916;2023-02-28T02:04:26;-0.10;92.20
10155;DHT22;5118;48.570;7.916;2023-02-28T02:06:55;-0.10;92.20
10155;DHT22;5118;48.570;7.916;2023-02-28T02:09:27;-0.10;92.10
10155;DHT22;5118;48.570;7.916;2023-02-28T02:11:56;0.00;92.60
10155;DHT22;5118;48.570;7.916;2023-02-28T02:14:37;-0.10;92.70
10155;DHT22;5118;48.570;7.916;2023-02-28T02:17:18;0.00;93.30
10155;DHT22;5118;48.570;7.916;2023-02-28T02:23:28;0.00;93.80
10155;DHT22;5118;48.570;7.916;2023-02-28T02:26:16;0.00;93.40
10155;DHT22;5118;48.570;7.916;2023-02-28T02:29:02;0.00;93.90
10155;DHT22;5118;48.570;7.916;2023-02-28T02:32:03;0.00;93.70
10155;DHT22;5118;48.570;7.916;2023-02-28T02:34:42;0.00;93.90
10155;DHT22;5118;48.570;7.916;2023-02-28T02:37:24;0.00;94.00
10155;DHT22;5118;48.570;7.916;2023-02-28T02:40:04;-0.10;93.90
10155;DHT22;5118;48.570;7.916;2023-02-28T02:42:42;-0.10;94.20
10155;DHT22;5118;48.570;7.916;2023-02-28T02:45:18;-0.10;94.40
10155;DHT22;5118;48.570;7.916;2023-02-28T02:47:50;-0.10;94.70
10155;DHT22;5118;48.570;7.916;2023-02-28T02:50:29;-0.10;95.00
10155;DHT22;5118;48.570;7.916;2023-02-28T02:53:01;-0.10;95.10
10155;DHT22;5118;48.570;7.916;2023-02-28T02:55:36;-0.10;95.10
10155;DHT22;5118;48.570;7.916;2023-02-28T02:58:08;-0.20;95.00
10155;DHT22;5118;48.570;7.916;2023-02-28T03:00:41;-0.20;95.70
10155;DHT22;5118;48.570;7.916;2023-02-28T03:03:11;-0.20;95.70
10155;DHT22;5118;48.570;7.916;2023-02-28T03:05:46;-0.20;96.20
10155;DHT22;5118;48.570;7.916;2023-02-28T03:08:15;-0.20;96.10
10155;DHT22;5118;48.570;7.916;2023-02-28T03:10:46;-0.20;96.40
10155;DHT22;5118;48.570;7.916;2023-02-28T03:17:00;-0.20;97.30
10155;DHT22;5118;48.570;7.916;2023-02-28T03:19:43;-0.20;97.00
10155;DHT22;5118;48.570;7.916;2023-02-28T03:25:08;-0.20;97.30
10155;DHT22;5118;48.570;7.916;2023-02-28T03:27:44;-0.30;97.90
10155;DHT22;5118;48.570;7.916;2023-02-28T03:30:20;-0.30;97.80
10155;DHT22;5118;48.570;7.916;2023-02-28T03:32:55;-0.30;98.30
10155;DHT22;5118;48.570;7.916;2023-02-28T03:35:28;-0.20;98.50
10155;DHT22;5118;48.570;7.916;2023-02-28T03:38:03;-0.20;98.40
10155;DHT22;5118;48.570;7.916;2023-02-28T03:40:36;-0.20;98.60
10155;DHT22;5118;48.570;7.916;2023-02-28T03:43:10;-0.20;98.70
10155;DHT22;5118;48.570;7.916;2023-02-28T03:45:41;-0.30;98.80
10155;DHT22;5118;48.570;7.916;2023-02-28T03:48:14;-0.30;99.10
10155;DHT22;5118;48.570;7.916;2023-02-28T03:50:45;-0.40;99.00
10155;DHT22;5118;48.570;7.916;2023-02-28T03:53:19;-0.50;99.30
10155;DHT22;5118;48.570;7.916;2023-02-28T03:55:54;-0.50;99.60
10155;DHT22;5118;48.570;7.916;2023-02-28T03:58:27;-0.60;99.90
10155;DHT22;5118;48.570;7.916;2023-02-28T04:01:02;-0.70;99.90
10155;DHT22;5118;48.570;7.916;2023-02-28T04:03:36;-0.80;99.90
10155;DHT22;5118;48.570;7.916;2023-02-28T04:06:06;-0.90;99.90
10155;DHT22;5118;48.570;7.916;2023-02-28T04:08:38;-1.00;99.90
10155;DHT22;5118;48.570;7.916;2023-02-28T04:11:16;-1.10;99.90
10155;DHT22;5118;48.570;7.916;2023-02-28T04:13:46;-1.10;99.90
10155;DHT22;5118;48.570;7.916;2023-02-28T04:16:15;-1.20;99.90
10155;DHT22;5118;48.570;7.916;2023-02-28T04:19:01;-1.30;99.90
10155;DHT22;5118;48.570;7.916;2023-02-28T04:21:31;-1.40;99.90
10155;DHT22;5118;48.570;7.916;2023-02-28T04:24:01;-1.40;99.90
10155;DHT22;5118;48.570;7.916;2023-02-28T04:26:30;-1.40;99.90
10155;DHT22;5118;48.570;7.916;2023-02-28T04:28:59;-1.40;99.90
10155;DHT22;5118;48.570;7.916;2023-02-28T04:31:28;-1.50;99.90
10155;DHT22;5118;48.570;7.916;2023-02-28T04:33:57;-1.50;99.90
10155;DHT22;5118;48.570;7.916;2023-02-28T04:36:25;-1.50;99.90
10155;DHT22;5118;48.570;7.916;2023-02-28T04:38:54;-1.60;99.90
10155;DHT22;5118;48.570;7.916;2023-02-28T04:41:24;-1.60;99.90
10155;DHT22;5118;48.570;7.916;2023-02-28T04:43:54;-1.60;99.90
10155;DHT22;5118;48.570;7.916;2023-02-28T04:46:23;-1.70;99.90
10155;DHT22;5118;48.570;7.916;2023-02-28T04:48:51;-1.70;99.90
10155;DHT22;5118;48.570;7.916;2023-02-28T04:51:20;-1.70;99.90
10155;DHT22;5118;48.570;7.916;2023-02-28T04:53:48;-1.70;99.90
10155;DHT22;5118;48.570;7.916;2023-02-28T04:56:18;-1.70;99.90
10155;DHT22;5118;48.570;7.916;2023-02-28T04:58:47;-1.80;99.90
10155;DHT22;5118;48.570;7.916;2023-02-28T05:01:19;-1.80;99.90
10155;DHT22;5118;48.570;7.916;2023-02-28T05:03:48;-1.80;99.90
10155;DHT22;5118;48.570;7.916;2023-02-28T05:06:17;-1.90;99.90
10155;DHT22;5118;48.570;7.916;2023-02-28T05:08:47;-1.90;99.90
10155;DHT22;5118;48.570;7.916;2023-02-28T05:11:18;-1.90;99.90
10155;DHT22;5118;48.570;7.916;2023-02-28T05:13:50;-1.90;99.90
10155;DHT22;5118;48.570;7.916;2023-02-28T05:16:19;-1.90;99.90
10155;DHT22;5118;48.570;7.916;2023-02-28T05:18:47;-1.90;99.90
10155;DHT22;5118;48.570;7.916;2023-02-28T05:21:24;-1.80;99.90
10155;DHT22;5118;48.570;7.916;2023-02-28T05:23:53;-1.80;99.90
10155;DHT22;5118;48.570;7.916;2023-02-28T05:26:22;-1.70;99.90
10155;DHT22;5118;48.570;7.916;2023-02-28T05:28:51;-1.70;99.90
10155;DHT22;5118;48.570;7.916;2023-02-28T05:31:20;-1.70;99.90
10155;DHT22;5118;48.570;7.916;2023-02-28T05:33:49;-1.60;99.90
10155;DHT22;5118;48.570;7.916;2023-02-28T05:36:18;-1.60;99.90
10155;DHT22;5118;48.570;7.916;2023-02-28T05:38:47;-1.50;99.90
10155;DHT22;5118;48.570;7.916;2023-02-28T05:41:16;-1.50;99.90
10155;DHT22;5118;48.570;7.916;2023-02-28T05:43:46;-1.50;99.90
10155;DHT22;5118;48.570;7.916;2023-02-28T05:46:16;-1.40;99.90
10155;DHT22;5118;48.570;7.916;2023-02-28T05:48:47;-1.40;99.90
10155;DHT22;5118;48.570;7.916;2023-02-28T05:51:16;-1.40;99.90
10155;DHT22;5118;48.570;7.916;2023-02-28T05:53:46;-1.30;99.90
10155;DHT22;5118;48.570;7.916;2023-02-28T05:56:16;-1.30;99.90
10155;DHT22;5118;48.570;7.916;2023-02-28T05:58:44;-1.20;99.90
10155;DHT22;5118;48.570;7.916;2023-02-28T06:01:23;-1.20;99.90
10155;DHT22;5118;48.570;7.916;2023-02-28T06:03:52;-1.20;99.90
10155;DHT22;5118;48.570;7.916;2023-02-28T06:06:20;-1.10;99.90
10155;DHT22;5118;48.570;7.916;2023-02-28T06:08:49;-1.10;99.90
10155;DHT22;5118;48.570;7.916;2023-02-28T06:11:17;-1.10;99.90
10155;DHT22;5118;48.570;7.916;2023-02-28T06:13:47;-1.00;99.90
10155;DHT22;5118;48.570;7.916;2023-02-28T06:16:16;-1.00;99.90
10155;DHT22;5118;48.570;7.916;2023-02-28T06:18:49;-1.00;99.90
10155;DHT22;5118;48.570;7.916;2023-02-28T06:21:19;-0.90;99.90
10155;DHT22;5118;48.570;7.916;2023-02-28T06:23:48;-0.90;99.90
10155;DHT22;5118;48.570;7.916;2023-02-28T06:26:16;-0.80;99.90
10155;DHT22;5118;48.570;7.916;2023-02-28T06:28:45;-0.80;99.90
10155;DHT22;5118;48.570;7.916;2023-02-28T06:31:16;-0.70;99.90
10155;DHT22;5118;48.570;7.916;2023-02-28T06:33:47;-0.70;99.90
10155;DHT22;5118;48.570;7.916;2023-02-28T06:36:17;-0.70;99.90
10155;DHT22;5118;48.570;7.916;2023-02-28T06:38:47;-0.60;99.90
10155;DHT22;5118;48.570;7.916;2023-02-28T06:41:22;-0.60;99.90
10155;DHT22;5118;48.570;7.916;2023-02-28T06:43:51;-0.60;99.90
10155;DHT22;5118;48.570;7.916;2023-02-28T06:46:20;-0.50;99.90
10155;DHT22;5118;48.570;7.916;2023-02-28T06:48:49;-0.50;99.90
10155;DHT22;5118;48.570;7.916;2023-02-28T06:51:20;-0.40;99.90
10155;DHT22;5118;48.570;7.916;2023-02-28T06:53:49;-0.40;99.90
10155;DHT22;5118;48.570;7.916;2023-02-28T06:56:18;-0.40;99.90
10155;DHT22;5118;48.570;7.916;2023-02-28T06:58:48;-0.40;99.90
10155;DHT22;5118;48.570;7.916;2023-02-28T07:01:17;-0.30;99.90
10155;DHT22;5118;48.570;7.916;2023-02-28T07:03:47;-0.30;99.90
10155;DHT22;5118;48.570;7.916;2023-02-28T07:06:21;-0.30;99.90
10155;DHT22;5118;48.570;7.916;2023-02-28T07:08:51;-0.20;99.90
10155;DHT22;5118;48.570;7.916;2023-02-28T07:11:37;-0.20;99.90
10155;DHT22;5118;48.570;7.916;2023-02-28T07:14:06;-0.20;99.90
10155;DHT22;5118;48.570;7.916;2023-02-28T07:16:36;-0.10;99.90
10155;DHT22;5118;48.570;7.916;2023-02-28T07:19:04;-0.10;99.90
10155;DHT22;5118;48.570;7.916;2023-02-28T07:21:32;0.00;99.90
10155;DHT22;5118;48.570;7.916;2023-02-28T07:24:01;0.10;99.90
10155;DHT22;5118;48.570;7.916;2023-02-28T07:26:29;0.20;99.90
10155;DHT22;5118;48.570;7.916;2023-02-28T07:28:58;0.20;99.90
10155;DHT22;5118;48.570;7.916;2023-02-28T07:31:27;0.30;99.90
10155;DHT22;5118;48.570;7.916;2023-02-28T07:33:56;0.30;99.90
10155;DHT22;5118;48.570;7.916;2023-02-28T07:36:24;0.40;99.90
10155;DHT22;5118;48.570;7.916;2023-02-28T07:38:52;0.40;99.90
10155;DHT22;5118;48.570;7.916;2023-02-28T07:41:22;0.50;99.90
10155;DHT22;5118;48.570;7.916;2023-02-28T07:43:53;0.50;99.90
10155;DHT22;5118;48.570;7.916;2023-02-28T07:46:24;0.60;99.90
10155;DHT22;5118;48.570;7.916;2023-02-28T07:48:56;0.60;99.90
10155;DHT22;5118;48.570;7.916;2023-02-28T07:51:26;0.60;99.90
10155;DHT22;5118;48.570;7.916;2023-02-28T07:53:56;0.70;99.90
10155;DHT22;5118;48.570;7.916;2023-02-28T07:56:26;0.70;99.90
10155;DHT22;5118;48.570;7.916;2023-02-28T07:58:55;0.70;99.90
10155;DHT22;5118;48.570;7.916;2023-02-28T08:01:25;0.70;99.90
10155;DHT22;5118;48.570;7.916;2023-02-28T08:03:55;0.80;99.90
10155;DHT22;5118;48.570;7.916;2023-02-28T08:06:25;0.80;99.90
10155;DHT22;5118;48.570;7.916;2023-02-28T08:08:54;0.70;99.90
10155;DHT22;5118;48.570;7.916;2023-02-28T08:11:24;0.80;99.90
10155;DHT22;5118;48.570;7.916;2023-02-28T08:13:52;0.80;99.90
10155;DHT22;5118;48.570;7.916;2023-02-28T08:16:22;0.90;99.90
10155;DHT22;5118;48.570;7.916;2023-02-28T08:18:52;0.90;99.90
10155;DHT22;5118;48.570;7.916;2023-02-28T08:21:21;1.00;99.90
10155;DHT22;5118;48.570;7.916;2023-02-28T08:23:51;1.10;99.90
10155;DHT22;5118;48.570;7.916;2023-02-28T08:26:20;1.20;99.90
10155;DHT22;5118;48.570;7.916;2023-02-28T08:28:49;1.20;99.90
10155;DHT22;5118;48.570;7.916;2023-02-28T08:31:18;1.30;99.90
10155;DHT22;5118;48.570;7.916;2023-02-28T08:33:47;1.40;99.90
10155;DHT22;5118;48.570;7.916;2023-02-28T08:36:22;1.50;99.90
10155;DHT22;5118;48.570;7.916;2023-02-28T08:38:55;1.60;99.90
10155;DHT22;5118;48.570;7.916;2023-02-28T08:41:24;1.60;99.90
10155;DHT22;5118;48.570;7.916;2023-02-28T08:43:56;1.70;99.90
10155;DHT22;5118;48.570;7.916;2023-02-28T08:46:25;1.70;99.90
10155;DHT22;5118;48.570;7.916;2023-02-28T08:48:54;1.70;99.90
10155;DHT22;5118;48.570;7.916;2023-02-28T08:51:28;1.80;99.90
10155;DHT22;5118;48.570;7.916;2023-02-28T08:54:00;1.80;99.90
10155;DHT22;5118;48.570;7.916;2023-02-28T08:56:29;1.80;99.90
10155;DHT22;5118;48.570;7.916;2023-02-28T08:58:57;1.80;99.90
10155;DHT22;5118;48.570;7.916;2023-02-28T09:01:27;1.80;99.90
10155;DHT22;5118;48.570;7.916;2023-02-28T09:04:00;1.80;99.90
10155;DHT22;5118;48.570;7.916;2023-02-28T09:06:35;1.90;99.90
10155;DHT22;5118;48.570;7.916;2023-02-28T09:09:04;1.90;99.90
10155;DHT22;5118;48.570;7.916;2023-02-28T09:11:34;1.90;99.90
10155;DHT22;5118;48.570;7.916;2023-02-28T09:14:05;1.90;99.90
10155;DHT22;5118;48.570;7.916;2023-02-28T09:16:34;1.90;99.90
10155;DHT22;5118;48.570;7.916;2023-02-28T09:19:04;1.90;99.90
10155;DHT22;5118;48.570;7.916;2023-02-28T09:21:34;2.00;99.90
10155;DHT22;5118;48.570;7.916;2023-02-28T09:24:04;2.00;99.90
10155;DHT22;5118;48.570;7.916;2023-02-28T09:26:33;2.00;99.90
10155;DHT22;5118;48.570;7.916;2023-02-28T09:29:13;2.00;99.90
10155;DHT22;5118;48.570;7.916;2023-02-28T09:31:43;2.00;99.90
10155;DHT22;5118;48.570;7.916;2023-02-28T09:34:12;2.10;99.90
10155;DHT22;5118;48.570;7.916;2023-02-28T09:36:42;2.10;99.90
10155;DHT22;5118;48.570;7.916;2023-02-28T09:39:12;2.20;99.90
10155;DHT22;5118;48.570;7.916;2023-02-28T09:41:48;2.20;99.90
10155;DHT22;5118;48.570;7.916;2023-02-28T09:44:26;2.20;99.90
10155;DHT22;5118;48.570;7.916;2023-02-28T09:46:59;2.20;99.90
10155;DHT22;5118;48.570;7.916;2023-02-28T09:49:38;2.30;99.90
10155;DHT22;5118;48.570;7.916;2023-02-28T09:52:13;2.30;99.90
10155;DHT22;5118;48.570;7.916;2023-02-28T09:54:43;2.30;99.90
10155;DHT22;5118;48.570;7.916;2023-02-28T09:57:18;2.40;99.90
10155;DHT22;5118;48.570;7.916;2023-02-28T10:00:00;2.40;99.90
10155;DHT22;5118;48.570;7.916;2023-02-28T10:03:09;2.50;99.90
10155;DHT22;5118;48.570;7.916;2023-02-28T10:05:41;2.60;99.90
10155;DHT22;5118;48.570;7.916;2023-02-28T10:08:15;2.60;99.90
10155;DHT22;5118;48.570;7.916;2023-02-28T10:10:47;2.70;99.90
10155;DHT22;5118;48.570;7.916;2023-02-28T10:13:22;2.80;99.90
10155;DHT22;5118;48.570;7.916;2023-02-28T10:15:55;2.80;99.90
10155;DHT22;5118;48.570;7.916;2023-02-28T10:18:27;2.80;99.90
10155;DHT22;5118;48.570;7.916;2023-02-28T10:20:58;2.90;99.90
10155;DHT22;5118;48.570;7.916;2023-02-28T10:23:32;2.90;99.90
10155;DHT22;5118;48.570;7.916;2023-02-28T10:26:11;2.90;99.90
10155;DHT22;5118;48.570;7.916;2023-02-28T10:28:40;2.90;99.90
10155;DHT22;5118;48.570;7.916;2023-02-28T10:31:11;3.00;99.90
10155;DHT22;5118;48.570;7.916;2023-02-28T10:33:41;3.10;99.90
10155;DHT22;5118;48.570;7.916;2023-02-28T10:36:13;3.10;99.90
10155;DHT22;5118;48.570;7.916;2023-02-28T10:38:46;3.10;99.90
10155;DHT22;5118;48.570;7.916;2023-02-28T10:41:16;3.20;99.90
10155;DHT22;5118;48.570;7.916;2023-02-28T10:43:45;3.20;99.90
10155;DHT22;5118;48.570;7.916;2023-02-28T10:46:15;3.20;99.90
10155;DHT22;5118;48.570;7.916;2023-02-28T10:49:03;3.30;99.90
10155;DHT22;5118;48.570;7.916;2023-02-28T10:51:39;3.40;99.90
10155;DHT22;5118;48.570;7.916;2023-02-28T10:54:19;3.40;99.90
10155;DHT22;5118;48.570;7.916;2023-02-28T10:57:15;3.50;99.90
10155;DHT22;5118;48.570;7.916;2023-02-28T10:59:46;3.60;99.90
10155;DHT22;5118;48.570;7.916;2023-02-28T11:02:33;3.70;99.90
10155;DHT22;5118;48.570;7.916;2023-02-28T11:05:14;3.70;99.90
10155;DHT22;5118;48.570;7.916;2023-02-28T11:07:52;3.70;99.90
10155;DHT22;5118;48.570;7.916;2023-02-28T11:10:26;3.70;99.90
10155;DHT22;5118;48.570;7.916;2023-02-28T11:12:58;3.80;99.90
10155;DHT22;5118;48.570;7.916;2023-02-28T11:15:28;3.80;99.90
10155;DHT22;5118;48.570;7.916;2023-02-28T11:17:59;3.90;99.90
10155;DHT22;5118;48.570;7.916;2023-02-28T11:20:30;4.00;99.90
10155;DHT22;5118;48.570;7.916;2023-02-28T11:23:02;4.10;99.90
10155;DHT22;5118;48.570;7.916;2023-02-28T11:25:36;4.20;99.90
10155;DHT22;5118;48.570;7.916;2023-02-28T11:28:22;4.40;99.90
10155;DHT22;5118;48.570;7.916;2023-02-28T11:31:01;4.50;99.90
10155;DHT22;5118;48.570;7.916;2023-02-28T11:33:32;4.50;99.90
10155;DHT22;5118;48.570;7.916;2023-02-28T11:36:12;4.50;99.90
10155;DHT22;5118;48.570;7.916;2023-02-28T11:38:41;4.60;99.90
10155;DHT22;5118;48.570;7.916;2023-02-28T11:41:30;4.70;99.90
10155;DHT22;5118;48.570;7.916;2023-02-28T11:44:23;4.70;99.90
10155;DHT22;5118;48.570;7.916;2023-02-28T11:46:57;4.80;99.90
10155;DHT22;5118;48.570;7.916;2023-02-28T11:49:32;4.80;99.90
10155;DHT22;5118;48.570;7.916;2023-02-28T11:52:08;4.80;99.90
10155;DHT22;5118;48.570;7.916;2023-02-28T11:54:55;4.80;99.90
10155;DHT22;5118;48.570;7.916;2023-02-28T11:57:39;4.80;99.90
10155;DHT22;5118;48.570;7.916;2023-02-28T12:00:25;4.90;99.90
10155;DHT22;5118;48.570;7.916;2023-02-28T12:03:03;5.00;99.90
10155;DHT22;5118;48.570;7.916;2023-02-28T12:05:42;5.10;99.90
10155;DHT22;5118;48.570;7.916;2023-02-28T12:08:26;5.20;99.90
10155;DHT22;5118;48.570;7.916;2023-02-28T12:11:07;5.30;99.90
10155;DHT22;5118;48.570;7.916;2023-02-28T12:13:46;5.40;99.90
10155;DHT22;5118;48.570;7.916;2023-02-28T12:16:37;5.50;99.90
10155;DHT22;5118;48.570;7.916;2023-02-28T12:19:16;5.60;99.90
10155;DHT22;5118;48.570;7.916;2023-02-28T12:22:05;5.70;99.90
10155;DHT22;5118;48.570;7.916;2023-02-28T12:25:09;5.70;99.00
10155;DHT22;5118;48.570;7.916;2023-02-28T12:27:45;5.90;99.10
10155;DHT22;5118;48.570;7.916;2023-02-28T12:30:21;6.00;99.70
10155;DHT22;5118;48.570;7.916;2023-02-28T12:32:54;6.20;99.00
10155;DHT22;5118;48.570;7.916;2023-02-28T12:35:26;6.20;98.90
10155;DHT22;5118;48.570;7.916;2023-02-28T12:38:03;6.20;98.70
10155;DHT22;5118;48.570;7.916;2023-02-28T12:40:43;6.20;98.20
10155;DHT22;5118;48.570;7.916;2023-02-28T12:43:14;6.20;98.10
10155;DHT22;5118;48.570;7.916;2023-02-28T12:45:49;6.20;98.10
10155;DHT22;5118;48.570;7.916;2023-02-28T12:48:21;6.30;98.20
10155;DHT22;5118;48.570;7.916;2023-02-28T12:50:52;6.40;98.10
10155;DHT22;5118;48.570;7.916;2023-02-28T12:53:26;6.50;97.80
10155;DHT22;5118;48.570;7.916;2023-02-28T12:56:04;6.60;97.80
10155;DHT22;5118;48.570;7.916;2023-02-28T12:58:39;6.70;96.80
10155;DHT22;5118;48.570;7.916;2023-02-28T13:01:36;6.80;97.60
10155;DHT22;5118;48.570;7.916;2023-02-28T13:04:56;7.00;97.20
10155;DHT22;5118;48.570;7.916;2023-02-28T13:10:23;7.60;96.60
10155;DHT22;5118;48.570;7.916;2023-02-28T13:12:58;7.80;97.00
10155;DHT22;5118;48.570;7.916;2023-02-28T13:15:57;8.10;96.90
10155;DHT22;5118;48.570;7.916;2023-02-28T13:19:19;8.60;95.60
10155;DHT22;5118;48.570;7.916;2023-02-28T13:21:53;9.60;94.10
10155;DHT22;5118;48.570;7.916;2023-02-28T13:24:51;10.10;94.60
10155;DHT22;5118;48.570;7.916;2023-02-28T13:27:36;10.90;91.10
10155;DHT22;5118;48.570;7.916;2023-02-28T13:33:22;12.30;82.90
10155;DHT22;5118;48.570;7.916;2023-02-28T13:36:11;12.50;85.30
10155;DHT22;5118;48.570;7.916;2023-02-28T13:38:51;12.30;81.40
10155;DHT22;5118;48.570;7.916;2023-02-28T13:41:41;12.00;81.80
10155;DHT22;5118;48.570;7.916;2023-02-28T13:44:11;11.60;77.80
10155;DHT22;5118;48.570;7.916;2023-02-28T13:49:45;11.90;82.70
10155;DHT22;5118;48.570;7.916;2023-02-28T13:52:19;12.90;82.10
10155;DHT22;5118;48.570;7.916;2023-02-28T13:55:19;14.10;79.50
10155;DHT22;5118;48.570;7.916;2023-02-28T13:58:07;15.50;65.70
10155;DHT22;5118;48.570;7.916;2023-02-28T14:01:00;16.80;62.80
10155;DHT22;5118;48.570;7.916;2023-02-28T14:03:59;17.90;51.50
10155;DHT22;5118;48.570;7.916;2023-02-28T14:06:33;18.90;50.60
10155;DHT22;5118;48.570;7.916;2023-02-28T14:09:17;19.90;50.80
10155;DHT22;5118;48.570;7.916;2023-02-28T14:11:46;20.50;43.20
10155;DHT22;5118;48.570;7.916;2023-02-28T14:17:18;20.30;39.50
10155;DHT22;5118;48.570;7.916;2023-02-28T14:19:47;20.30;40.50
10155;DHT22;5118;48.570;7.916;2023-02-28T14:22:34;20.20;38.60
10155;DHT22;5118;48.570;7.916;2023-02-28T14:25:18;20.00;36.80
10155;DHT22;5118;48.570;7.916;2023-02-28T14:28:00;20.10;33.70
10155;DHT22;5118;48.570;7.916;2023-02-28T14:30:57;20.30;34.20
10155;DHT22;5118;48.570;7.916;2023-02-28T14:33:46;20.60;34.20
10155;DHT22;5118;48.570;7.916;2023-02-28T14:36:19;21.00;33.80
10155;DHT22;5118;48.570;7.916;2023-02-28T14:38:52;21.40;35.50
10155;DHT22;5118;48.570;7.916;2023-02-28T14:41:24;21.90;35.00
10155;DHT22;5118;48.570;7.916;2023-02-28T14:43:58;22.30;33.00
10155;DHT22;5118;48.570;7.916;2023-02-28T14:46:30;22.50;32.40
10155;DHT22;5118;48.570;7.916;2023-02-28T14:49:04;22.60;30.40
10155;DHT22;5118;48.570;7.916;2023-02-28T14:51:33;22.50;29.60
10155;DHT22;5118;48.570;7.916;2023-02-28T14:54:03;22.10;29.20
10155;DHT22;5118;48.570;7.916;2023-02-28T14:56:36;21.60;28.90
10155;DHT22;5118;48.570;7.916;2023-02-28T14:59:17;21.30;29.20
10155;DHT22;5118;48.570;7.916;2023-02-28T15:04:36;21.20;29.20
10155;DHT22;5118;48.570;7.916;2023-02-28T15:07:08;21.20;29.40
10155;DHT22;5118;48.570;7.916;2023-02-28T15:09:36;21.10;28.60
10155;DHT22;5118;48.570;7.916;2023-02-28T15:12:06;21.10;28.80
10155;DHT22;5118;48.570;7.916;2023-02-28T15:14:37;21.20;28.40
10155;DHT22;5118;48.570;7.916;2023-02-28T15:17:09;21.30;28.30
10155;DHT22;5118;48.570;7.916;2023-02-28T15:19:50;21.20;28.00
10155;DHT22;5118;48.570;7.916;2023-02-28T15:22:24;21.10;28.40
10155;DHT22;5118;48.570;7.916;2023-02-28T15:24:57;21.20;28.60
10155;DHT22;5118;48.570;7.916;2023-02-28T15:27:31;21.30;28.30
10155;DHT22;5118;48.570;7.916;2023-02-28T15:30:05;21.40;28.20
10155;DHT22;5118;48.570;7.916;2023-02-28T15:32:36;21.30;27.30
10155;DHT22;5118;48.570;7.916;2023-02-28T15:35:20;21.10;27.60
10155;DHT22;5118;48.570;7.916;2023-02-28T15:37:53;20.90;27.10
10155;DHT22;5118;48.570;7.916;2023-02-28T15:40:25;20.70;27.40
10155;DHT22;5118;48.570;7.916;2023-02-28T15:43:03;20.60;27.00
10155;DHT22;5118;48.570;7.916;2023-02-28T15:45:37;20.30;26.40
10155;DHT22;5118;48.570;7.916;2023-02-28T15:48:18;19.90;27.40
10155;DHT22;5118;48.570;7.916;2023-02-28T15:50:50;19.60;27.60
10155;DHT22;5118;48.570;7.916;2023-02-28T15:53:23;19.40;27.50
10155;DHT22;5118;48.570;7.916;2023-02-28T15:55:58;19.20;27.60
10155;DHT22;5118;48.570;7.916;2023-02-28T15:58:39;19.00;27.50
10155;DHT22;5118;48.570;7.916;2023-02-28T16:01:24;18.90;27.60
10155;DHT22;5118;48.570;7.916;2023-02-28T16:03:59;18.60;27.10
10155;DHT22;5118;48.570;7.916;2023-02-28T16:06:34;18.20;27.70
10155;DHT22;5118;48.570;7.916;2023-02-28T16:09:04;18.00;27.90
10155;DHT22;5118;48.570;7.916;2023-02-28T16:11:38;17.80;28.10
10155;DHT22;5118;48.570;7.916;2023-02-28T16:14:15;17.60;27.90
10155;DHT22;5118;48.570;7.916;2023-02-28T16:16:45;17.30;28.20
10155;DHT22;5118;48.570;7.916;2023-02-28T16:19:14;16.90;28.50
10155;DHT22;5118;48.570;7.916;2023-02-28T16:21:43;16.50;28.50
10155;DHT22;5118;48.570;7.916;2023-02-28T16:24:15;16.00;28.70
10155;DHT22;5118;48.570;7.916;2023-02-28T16:26:47;15.50;29.00
10155;DHT22;5118;48.570;7.916;2023-02-28T16:29:22;14.70;29.30
10155;DHT22;5118;48.570;7.916;2023-02-28T16:31:52;13.60;29.90
10155;DHT22;5118;48.570;7.916;2023-02-28T16:34:21;12.50;30.70
10155;DHT22;5118;48.570;7.916;2023-02-28T16:36:50;11.50;31.60
10155;DHT22;5118;48.570;7.916;2023-02-28T16:39:18;10.70;32.20
10155;DHT22;5118;48.570;7.916;2023-02-28T16:41:49;9.90;34.10
10155;DHT22;5118;48.570;7.916;2023-02-28T16:44:26;9.20;34.70
10155;DHT22;5118;48.570;7.916;2023-02-28T16:46:56;8.70;35.10
10155;DHT22;5118;48.570;7.916;2023-02-28T16:49:24;8.30;37.10
10155;DHT22;5118;48.570;7.916;2023-02-28T16:51:53;7.90;37.80
10155;DHT22;5118;48.570;7.916;2023-02-28T16:54:22;7.50;39.10
10155;DHT22;5118;48.570;7.916;2023-02-28T16:56:51;7.10;40.20
10155;DHT22;5118;48.570;7.916;2023-02-28T16:59:22;6.80;40.10